createdAt,value
2019-04-04T00:03:53.348Z,100399.08
2019-04-04T00:08:01.504Z,100389.57
2019-04-04T00:12:09.290Z,100389.60
2019-04-04T00:16:17.725Z,100392.64
2019-04-04T00:20:25.718Z,100383.69
2019-04-04T00:24:33.400Z,100387.36
2019-04-04T00:28:41.454Z,100389.06
2019-04-04T00:32:50.900Z,100377.69
2019-04-04T00:36:59.119Z,100375.14
2019-04-04T00:41:08.158Z,100368.48
2019-04-04T00:45:16.170Z,100371.12
2019-04-04T00:49:23.861Z,100370.55
2019-04-04T00:53:31.795Z,100364.33
2019-04-04T00:57:39.990Z,100361.14
2019-04-04T01:01:47.707Z,100365.62
2019-04-04T01:05:55.815Z,100358.78
2019-04-04T01:10:03.534Z,100362.16
2019-04-04T01:14:11.282Z,100362.44
2019-04-04T01:18:19.651Z,100356.48
2019-04-04T01:22:27.298Z,100365.64
2019-04-04T01:26:35.835Z,100360.07
2019-04-04T01:30:46.884Z,100362.52
2019-04-04T01:34:54.390Z,100355.28
2019-04-04T01:39:02.596Z,100357.58
2019-04-04T01:43:12.353Z,100351.75
2019-04-04T01:47:20.153Z,100361.25
2019-04-04T01:51:28.391Z,100360.70
2019-04-04T01:55:36.601Z,100347.51
2019-04-04T01:59:44.624Z,100349.51
2019-04-04T02:03:53.669Z,100347.31
2019-04-04T02:08:02.403Z,100345.27
2019-04-04T02:12:10.001Z,100346.38
2019-04-04T02:16:18.221Z,100343.95
2019-04-04T02:20:26.990Z,100344.88
2019-04-04T02:24:35.267Z,100346.30
2019-04-04T02:28:43.474Z,100337.55
2019-04-04T02:32:51.111Z,100340.85
2019-04-04T02:36:58.624Z,100341.78
2019-04-04T02:41:06.735Z,100343.38
2019-04-04T02:45:14.740Z,100348.66
2019-04-04T02:49:22.847Z,100349.21
2019-04-04T02:53:31.178Z,100347.91
2019-04-04T02:57:42.328Z,100352.42
2019-04-04T03:01:48.648Z,100346.77
2019-04-04T03:05:57.064Z,100353.14
2019-04-04T03:10:05.548Z,100351.63
2019-04-04T03:14:13.411Z,100352.28
2019-04-04T03:18:21.832Z,100357.38
2019-04-04T03:22:29.738Z,100361.78
2019-04-04T03:26:37.734Z,100357.11
2019-04-04T03:30:52.660Z,100351.48
2019-04-04T03:34:55.034Z,100353.42
2019-04-04T03:39:02.728Z,100355.23
2019-04-04T03:43:10.632Z,100355.60
2019-04-04T03:47:18.347Z,100355.22
2019-04-04T03:51:26.693Z,100357.38
2019-04-04T03:55:34.472Z,100352.59
2019-04-04T03:59:42.697Z,100348.55
2019-04-04T04:03:54.749Z,100354.30
2019-04-04T04:08:00.973Z,100353.34
2019-04-04T04:12:11.051Z,100357.17
2019-04-04T04:16:19.357Z,100358.23
2019-04-04T04:20:27.168Z,100358.81
2019-04-04T04:24:35.084Z,100359.94
2019-04-04T04:28:42.898Z,100362.30
2019-04-04T04:32:55.744Z,100372.16
2019-04-04T04:37:00.355Z,100370.45
2019-04-04T04:41:08.264Z,100363.01
2019-04-04T04:45:16.081Z,100364.83
2019-04-04T04:49:24.096Z,100362.84
2019-04-04T04:53:31.891Z,100363.30
2019-04-04T04:57:40.022Z,100359.53
2019-04-04T05:01:50.652Z,100361.50
2019-04-04T05:05:57.877Z,100356.74
2019-04-04T05:10:06.758Z,100364.70
2019-04-04T05:14:14.749Z,100360.66
2019-04-04T05:18:22.439Z,100354.50
2019-04-04T05:22:30.464Z,100348.69
2019-04-04T05:26:38.915Z,100350.98
2019-04-04T05:30:47.185Z,100352.16
2019-04-04T05:34:55.600Z,100343.70
2019-04-04T05:39:06.037Z,100342.02
2019-04-04T05:43:15.103Z,100348.50
2019-04-04T05:47:23.845Z,100355.41
2019-04-04T05:51:31.786Z,100343.38
2019-04-04T05:55:42.421Z,100345.87
2019-04-04T05:59:49.579Z,100342.89
2019-04-04T06:03:57.368Z,100345.77
2019-04-04T06:08:07.866Z,100345.05
2019-04-04T06:12:15.754Z,100345.44
2019-04-04T06:16:23.659Z,100348.86
2019-04-04T06:20:31.696Z,100353.23
2019-04-04T06:24:39.894Z,100358.20
2019-04-04T06:28:47.639Z,100358.86
2019-04-04T06:32:55.424Z,100355.56
2019-04-04T06:37:03.599Z,100362.10
2019-04-04T06:41:11.439Z,100364.11
2019-04-04T06:45:19.237Z,100360.55
2019-04-04T06:49:28.865Z,100361.46
2019-04-04T06:53:36.158Z,100361.22
2019-04-04T06:57:44.516Z,100365.91
2019-04-04T07:01:52.696Z,100375.45
2019-04-04T07:06:00.983Z,100374.61
2019-04-04T07:10:09.096Z,100370.98
2019-04-04T07:14:16.789Z,100369.48
2019-04-04T07:18:24.755Z,100370.27
2019-04-04T07:22:33.542Z,100366.31
2019-04-04T07:26:43.154Z,100365.45
2019-04-04T07:30:50.816Z,100362.66
2019-04-04T07:34:58.519Z,100368.20
2019-04-04T07:39:07.185Z,100364.55
2019-04-04T07:43:14.891Z,100367.72
2019-04-04T07:47:22.673Z,100370.91
2019-04-04T07:51:30.894Z,100366.94
2019-04-04T07:55:40.109Z,100367.65
2019-04-04T07:59:49.767Z,100367.65
2019-04-04T08:03:57.483Z,100361.38
2019-04-04T08:08:05.386Z,100364.53
2019-04-04T08:12:13.110Z,100380.52
2019-04-04T08:16:21.339Z,100365.78
2019-04-04T08:20:29.524Z,100362.44
2019-04-04T08:24:37.346Z,100368.00
2019-04-04T08:28:45.469Z,100379.30
2019-04-04T08:32:53.595Z,100376.28
2019-04-04T08:37:01.276Z,100375.94
2019-04-04T08:41:09.919Z,100362.50
2019-04-04T08:45:17.654Z,100362.36
2019-04-04T08:49:25.360Z,100365.03
2019-04-04T08:53:39.640Z,100364.52
2019-04-04T08:57:44.025Z,100363.84
2019-04-04T09:01:51.701Z,100369.67
2019-04-04T09:05:59.763Z,100363.44
2019-04-04T09:10:08.094Z,100373.28
2019-04-04T09:14:15.785Z,100376.95
2019-04-04T09:18:23.492Z,100364.30
2019-04-04T09:22:31.100Z,100366.30
2019-04-04T09:26:39.120Z,100369.89
2019-04-04T09:30:47.432Z,100372.67
2019-04-04T09:34:55.282Z,100361.27
2019-04-04T09:39:05.689Z,100370.28
2019-04-04T09:43:13.770Z,100359.68
2019-04-04T09:47:21.921Z,100357.10
2019-04-04T09:51:30.519Z,100360.08
2019-04-04T09:55:38.189Z,100358.48
2019-04-04T09:59:46.166Z,100352.09
2019-04-04T10:03:54.498Z,100348.87
2019-04-04T10:08:02.242Z,100349.93
2019-04-04T10:12:09.950Z,100351.16
2019-04-04T10:16:17.953Z,100353.27
2019-04-04T10:20:25.411Z,100342.53
2019-04-04T10:24:33.250Z,100338.23
2019-04-04T10:28:41.189Z,100341.05
2019-04-04T10:32:49.493Z,100344.88
2019-04-04T10:36:57.505Z,100344.28
2019-04-04T10:41:05.231Z,100334.36
2019-04-04T10:45:13.894Z,100338.88
2019-04-04T10:49:21.683Z,100334.17
2019-04-04T10:53:29.361Z,100335.52
2019-04-04T10:57:37.505Z,100330.03
2019-04-04T11:01:45.832Z,100324.80
2019-04-04T11:05:53.760Z,100317.41
2019-04-04T11:10:02.138Z,100313.50
2019-04-04T11:14:10.973Z,100321.56
2019-04-04T11:18:18.781Z,100309.37
2019-04-04T11:22:27.564Z,100320.49
2019-04-04T11:26:35.242Z,100318.32
2019-04-04T11:30:43.357Z,100310.73
2019-04-04T11:34:53.343Z,100309.78
2019-04-04T11:39:01.727Z,100309.17
2019-04-04T11:43:11.361Z,100299.44
2019-04-04T11:47:19.631Z,100296.69
2019-04-04T11:51:27.321Z,100297.80
2019-04-04T11:55:35.023Z,100288.55
2019-04-04T11:59:42.731Z,100278.42
2019-04-04T12:03:51.035Z,100284.55
2019-04-04T12:07:58.973Z,100271.63
2019-04-04T12:12:06.415Z,100268.02
2019-04-04T12:16:14.773Z,100269.48
2019-04-04T12:20:23.529Z,100272.71
2019-04-04T12:24:33.091Z,100277.08
2019-04-04T12:28:43.411Z,100275.94
2019-04-04T12:32:54.315Z,100270.02
2019-04-04T12:37:04.604Z,100271.91
2019-04-04T12:41:14.245Z,100260.84
2019-04-04T12:45:24.120Z,100260.13
2019-04-04T12:49:35.405Z,100256.12
2019-04-04T12:53:46.938Z,100250.44
2019-04-04T12:57:56.900Z,100248.25
2019-04-04T13:02:07.524Z,100251.80
2019-04-04T13:06:17.996Z,100242.89
2019-04-04T13:10:32.835Z,100243.91
2019-04-04T13:14:39.118Z,100239.31
2019-04-04T13:18:49.181Z,100235.05
2019-04-04T13:22:57.062Z,100229.38
2019-04-04T13:27:05.325Z,100231.31
2019-04-04T13:31:13.604Z,100233.83
2019-04-04T13:35:21.763Z,100225.35
2019-04-04T13:39:29.504Z,100227.44
2019-04-04T13:43:37.177Z,100222.12
2019-04-04T13:47:45.231Z,100223.42
2019-04-04T13:51:53.727Z,100222.77
2019-04-04T13:56:01.525Z,100213.78
2019-04-04T14:00:11.459Z,100220.31
2019-04-04T14:04:20.485Z,100219.52
2019-04-04T14:08:28.448Z,100216.89
2019-04-04T14:12:36.160Z,100215.15
2019-04-04T14:16:43.751Z,100208.65
2019-04-04T14:21:02.950Z,100210.88
2019-04-04T14:25:02.156Z,100205.88
2019-04-04T14:29:09.789Z,100200.91
2019-04-04T14:33:18.627Z,100197.89
2019-04-04T14:37:26.732Z,100193.47
2019-04-04T14:41:34.407Z,100193.84
2019-04-04T14:45:44.014Z,100201.62
2019-04-04T14:49:52.206Z,100198.89
2019-04-04T14:53:59.811Z,100203.70
2019-04-04T14:58:08.019Z,100201.40
2019-04-04T15:02:15.952Z,100196.25
2019-04-04T15:06:23.521Z,100199.33
2019-04-04T15:10:31.157Z,100200.91
2019-04-04T15:14:38.796Z,100201.77
2019-04-04T15:18:47.669Z,100205.69
2019-04-04T15:22:57.326Z,100208.25
2019-04-04T15:27:05.037Z,100212.61
2019-04-04T15:31:13.360Z,100209.52
2019-04-04T15:35:21.596Z,100212.80
2019-04-04T15:39:29.184Z,100206.91
2019-04-04T15:43:36.981Z,100215.22
2019-04-04T15:47:44.686Z,100202.94
2019-04-04T15:51:52.714Z,100205.97
2019-04-04T15:56:00.720Z,100207.56
2019-04-04T16:00:09.906Z,100202.81
2019-04-04T16:04:17.693Z,100202.00
2019-04-04T16:08:25.774Z,100195.66
2019-04-04T16:12:33.509Z,100201.02
2019-04-04T16:16:43.256Z,100196.83
2019-04-04T16:20:51.509Z,100197.68
2019-04-04T16:24:59.217Z,100193.98
2019-04-04T16:29:07.332Z,100206.16
2019-04-04T16:33:15.037Z,100201.21
2019-04-04T16:37:23.218Z,100201.34
2019-04-04T16:41:31.860Z,100201.45
2019-04-04T16:45:39.683Z,100197.47
2019-04-04T16:49:48.437Z,100189.31
2019-04-04T16:53:56.120Z,100196.89
2019-04-04T16:58:04.455Z,100190.56
2019-04-04T17:02:12.440Z,100185.23
2019-04-04T17:06:20.255Z,100190.53
2019-04-04T17:10:28.427Z,100192.95
2019-04-04T17:14:36.666Z,100196.92
2019-04-04T17:18:44.387Z,100197.81
2019-04-04T17:22:52.319Z,100195.04
2019-04-04T17:27:00.125Z,100202.61
2019-04-04T17:31:08.639Z,100209.15
2019-04-04T17:35:18.937Z,100199.86
2019-04-04T17:39:27.266Z,100203.11
2019-04-04T17:43:35.805Z,100210.94
2019-04-04T17:47:44.607Z,100214.80
2019-04-04T17:51:52.633Z,100216.03
2019-04-04T17:56:00.851Z,100214.83
2019-04-04T18:00:10.676Z,100221.67
2019-04-04T18:04:19.125Z,100226.86
2019-04-04T18:08:27.054Z,100223.73
2019-04-04T18:12:40.378Z,100220.97
2019-04-04T18:16:45.326Z,100218.19
2019-04-04T18:20:53.335Z,100220.95
2019-04-04T18:25:01.131Z,100227.70
2019-04-04T18:29:09.149Z,100228.67
2019-04-04T18:33:19.108Z,100233.50
2019-04-04T18:37:26.739Z,100234.94
2019-04-04T18:41:35.147Z,100230.25
2019-04-04T18:45:44.840Z,100227.12
2019-04-04T18:49:52.604Z,100223.97
2019-04-04T18:54:00.870Z,100220.97
2019-04-04T18:58:08.478Z,100220.96
2019-04-04T19:02:17.174Z,100211.95
2019-04-04T19:06:25.704Z,100214.11
2019-04-04T19:10:33.429Z,100219.02
2019-04-04T19:14:41.531Z,100214.94
2019-04-04T19:18:49.746Z,100211.56
2019-04-04T19:22:57.544Z,100216.63
2019-04-04T19:27:05.734Z,100218.09
2019-04-04T19:31:14.160Z,100217.95
2019-04-04T19:35:21.995Z,100222.64
2019-04-04T19:39:30.034Z,100213.98
2019-04-04T19:43:37.837Z,100214.34
2019-04-04T19:47:46.554Z,100213.13
2019-04-04T19:51:54.571Z,100202.44
2019-04-04T19:56:02.384Z,100210.00
2019-04-04T20:00:11.300Z,100211.80
2019-04-04T20:04:21.210Z,100215.17
2019-04-04T20:08:28.887Z,100222.01
2019-04-04T20:12:37.249Z,100216.97
2019-04-04T20:16:45.414Z,100210.83
2019-04-04T20:20:53.149Z,100215.89
2019-04-04T20:25:01.321Z,100219.61
2019-04-04T20:29:09.369Z,100223.94
2019-04-04T20:33:16.991Z,100226.73
2019-04-04T20:37:25.297Z,100222.73
2019-04-04T20:41:33.109Z,100222.48
2019-04-04T20:45:41.289Z,100222.96
2019-04-04T20:49:50.884Z,100219.13
2019-04-04T20:53:58.530Z,100229.84
2019-04-04T20:58:06.598Z,100231.86
2019-04-04T21:02:14.736Z,100229.39
2019-04-04T21:06:23.547Z,100228.74
2019-04-04T21:10:31.191Z,100235.16
2019-04-04T21:14:38.941Z,100240.81
2019-04-04T21:18:46.771Z,100237.92
2019-04-04T21:22:54.671Z,100235.27
2019-04-04T21:27:02.996Z,100235.77
2019-04-04T21:31:10.822Z,100237.17
2019-04-04T21:35:18.743Z,100237.67
2019-04-04T21:39:26.411Z,100234.65
2019-04-04T21:43:34.638Z,100234.20
2019-04-04T21:47:42.886Z,100231.14
2019-04-04T21:51:50.596Z,100228.39
2019-04-04T21:55:58.993Z,100224.19
2019-04-04T22:00:07.529Z,100218.53
2019-04-04T22:04:16.793Z,100215.02
2019-04-04T22:08:24.835Z,100209.70
2019-04-04T22:12:32.925Z,100216.34
2019-04-04T22:16:40.732Z,100221.64
2019-04-04T22:20:48.943Z,100214.88
2019-04-04T22:24:56.861Z,100214.79
2019-04-04T22:29:04.774Z,100210.08
2019-04-04T22:33:12.899Z,100206.73
2019-04-04T22:37:20.871Z,100206.13
2019-04-04T22:41:28.709Z,100201.55
2019-04-04T22:45:36.607Z,100202.51
2019-04-04T22:49:44.339Z,100209.28
2019-04-04T22:53:52.123Z,100210.48
2019-04-04T22:58:00.344Z,100199.04
2019-04-04T23:02:08.030Z,100201.80
2019-04-04T23:06:16.277Z,100193.41
2019-04-04T23:10:24.439Z,100202.36
2019-04-04T23:14:32.257Z,100195.64
2019-04-04T23:18:40.305Z,100190.61
2019-04-04T23:22:53.094Z,100196.37
2019-04-04T23:26:58.557Z,100179.17
2019-04-04T23:31:06.919Z,100184.81
2019-04-04T23:35:16.678Z,100176.62
2019-04-04T23:39:24.389Z,100178.69
2019-04-04T23:43:32.605Z,100175.31
2019-04-04T23:47:43.348Z,100175.45
2019-04-04T23:51:50.303Z,100177.23
2019-04-04T23:55:58.532Z,100172.91
